createdAt,value
2019-01-12T00:01:15.794Z,7.53
2019-01-12T00:03:41.982Z,10.10
2019-01-12T00:06:08.116Z,9.20
2019-01-12T00:08:34.256Z,9.30
2019-01-12T00:11:00.298Z,9.13
2019-01-12T00:13:26.322Z,11.60
2019-01-12T00:15:52.406Z,9.60
2019-01-12T00:18:19.652Z,9.43
2019-01-12T00:20:45.742Z,11.10
2019-01-12T00:23:11.860Z,8.53
2019-01-12T00:25:38.042Z,9.33
2019-01-12T00:28:04.109Z,9.70
2019-01-12T00:30:30.363Z,8.67
2019-01-12T00:32:56.379Z,10.80
2019-01-12T00:35:22.504Z,9.87
2019-01-12T00:37:48.694Z,8.80
2019-01-12T00:40:15.081Z,9.63
2019-01-12T00:42:41.398Z,9.30
2019-01-12T00:45:10.386Z,8.57
2019-01-12T00:47:36.624Z,9.37
2019-01-12T00:50:05.803Z,11.57
2019-01-12T00:52:31.930Z,10.40
2019-01-12T00:54:58.010Z,9.93
2019-01-12T00:57:24.480Z,11.53
2019-01-12T00:59:50.915Z,11.13
2019-01-12T01:02:16.920Z,10.20
2019-01-12T01:04:43.048Z,11.17
2019-01-12T01:07:09.307Z,22.30
2019-01-12T01:09:35.466Z,9.60
2019-01-12T01:12:01.738Z,9.03
2019-01-12T01:14:27.980Z,9.30
2019-01-12T01:16:54.004Z,9.93
2019-01-12T01:19:20.013Z,10.43
2019-01-12T01:21:46.155Z,9.13
2019-01-12T01:24:12.177Z,10.10
2019-01-12T01:26:38.309Z,9.80
2019-01-12T01:29:04.315Z,9.10
2019-01-12T01:31:30.353Z,9.87
2019-01-12T01:33:56.362Z,9.10
2019-01-12T01:36:22.418Z,8.30
2019-01-12T01:38:48.419Z,10.80
2019-01-12T01:41:14.682Z,8.57
2019-01-12T01:43:40.714Z,9.67
2019-01-12T01:46:06.707Z,9.50
2019-01-12T01:48:32.720Z,10.43
2019-01-12T01:50:58.820Z,11.90
2019-01-12T01:53:25.049Z,10.83
2019-01-12T01:55:51.100Z,9.57
2019-01-12T01:58:17.131Z,10.47
2019-01-12T02:00:43.565Z,13.10
2019-01-12T02:03:09.654Z,8.27
2019-01-12T02:05:35.683Z,9.90
2019-01-12T02:08:01.739Z,9.73
2019-01-12T02:10:27.755Z,9.33
2019-01-12T02:12:53.861Z,8.97
2019-01-12T02:15:20.729Z,10.63
2019-01-12T02:17:46.757Z,11.10
2019-01-12T02:20:13.149Z,8.30
2019-01-12T02:22:39.209Z,8.80
2019-01-12T02:25:07.207Z,9.73
2019-01-12T02:27:33.282Z,9.70
2019-01-12T02:29:59.310Z,9.33
2019-01-12T02:32:25.357Z,9.50
2019-01-12T02:34:51.682Z,9.30
2019-01-12T02:37:17.708Z,8.63
2019-01-12T02:39:43.763Z,8.27
2019-01-12T02:42:10.015Z,12.00
2019-01-12T02:44:36.195Z,9.90
2019-01-12T02:47:02.230Z,8.80
2019-01-12T02:49:28.356Z,8.30
2019-01-12T02:51:54.383Z,9.73
2019-01-12T02:54:20.398Z,11.17
2019-01-12T02:56:46.530Z,9.70
2019-01-12T02:59:12.673Z,9.63
2019-01-12T03:01:38.867Z,8.40
2019-01-12T03:04:05.194Z,7.60
2019-01-12T03:06:31.342Z,9.30
2019-01-12T03:08:57.456Z,9.10
2019-01-12T03:11:23.595Z,8.10
2019-01-12T03:13:49.744Z,9.37
2019-01-12T03:16:15.930Z,7.83
2019-01-12T03:18:41.966Z,8.70
2019-01-12T03:21:07.980Z,9.43
2019-01-12T03:23:34.205Z,8.67
2019-01-12T03:26:00.288Z,9.13
2019-01-12T03:28:26.311Z,9.27
2019-01-12T03:30:52.360Z,8.60
2019-01-12T03:33:18.584Z,9.07
2019-01-12T03:35:44.736Z,10.77
2019-01-12T03:38:10.759Z,8.87
2019-01-12T03:40:36.814Z,8.57
2019-01-12T03:43:03.149Z,7.20
2019-01-12T03:45:29.254Z,8.53
2019-01-12T03:47:55.287Z,8.33
2019-01-12T03:50:21.301Z,7.23
2019-01-12T03:52:47.341Z,8.47
2019-01-12T03:55:13.547Z,8.57
2019-01-12T03:57:39.565Z,7.70
2019-01-12T04:00:15.014Z,7.77
2019-01-12T04:02:41.069Z,8.10
2019-01-12T04:05:07.263Z,6.67
2019-01-12T04:07:33.390Z,9.80
2019-01-12T04:09:59.439Z,8.63
2019-01-12T04:12:25.535Z,9.03
2019-01-12T04:14:51.557Z,6.70
2019-01-12T04:17:17.592Z,7.53
2019-01-12T04:19:43.615Z,8.13
2019-01-12T04:22:09.642Z,7.30
2019-01-12T04:24:35.668Z,6.77
2019-01-12T04:27:01.703Z,8.03
2019-01-12T04:29:27.731Z,6.80
2019-01-12T04:31:53.736Z,6.73
2019-01-12T04:34:19.840Z,7.80
2019-01-12T04:36:45.881Z,7.43
2019-01-12T04:39:11.898Z,6.37
2019-01-12T04:41:37.952Z,7.73
2019-01-12T04:44:03.994Z,7.10
2019-01-12T04:46:30.288Z,8.33
2019-01-12T04:48:56.290Z,5.60
2019-01-12T04:51:22.563Z,7.63
2019-01-12T04:53:48.581Z,7.23
2019-01-12T04:56:14.618Z,7.07
2019-01-12T04:58:40.726Z,7.03
2019-01-12T05:01:07.034Z,6.60
2019-01-12T05:03:33.047Z,9.57
2019-01-12T05:05:59.071Z,7.57
2019-01-12T05:08:25.184Z,7.03
2019-01-12T05:10:51.267Z,6.97
2019-01-12T05:13:17.299Z,7.00
2019-01-12T05:15:43.381Z,6.20
2019-01-12T05:18:09.449Z,7.00
2019-01-12T05:20:35.515Z,7.67
2019-01-12T05:23:01.699Z,7.93
2019-01-12T05:25:27.769Z,6.23
2019-01-12T05:27:54.227Z,7.53
2019-01-12T05:30:20.455Z,6.20
2019-01-12T05:32:46.594Z,7.63
2019-01-12T05:35:12.646Z,6.87
2019-01-12T05:37:38.773Z,7.07
2019-01-12T05:40:07.108Z,6.40
2019-01-12T05:42:33.151Z,6.93
2019-01-12T05:44:59.291Z,6.47
2019-01-12T05:47:25.487Z,5.70
2019-01-12T05:49:51.531Z,6.77
2019-01-12T05:52:18.580Z,5.80
2019-01-12T05:54:44.887Z,6.97
2019-01-12T05:57:10.928Z,6.77
2019-01-12T05:59:36.964Z,6.30
2019-01-12T06:02:03.207Z,6.10
2019-01-12T06:04:29.316Z,5.83
2019-01-12T06:06:55.476Z,6.60
2019-01-12T06:09:21.641Z,5.70
2019-01-12T06:11:47.942Z,4.60
2019-01-12T06:14:14.245Z,5.30
2019-01-12T06:16:40.355Z,5.47
2019-01-12T06:19:06.430Z,4.50
2019-01-12T06:21:32.449Z,5.87
2019-01-12T06:23:58.459Z,5.50
2019-01-12T06:26:24.478Z,5.40
2019-01-12T06:28:50.757Z,5.03
2019-01-12T06:31:16.835Z,4.17
2019-01-12T06:33:42.876Z,4.80
2019-01-12T06:36:09.175Z,3.37
2019-01-12T06:38:35.176Z,3.73
2019-01-12T06:41:01.183Z,4.40
2019-01-12T06:43:27.262Z,3.93
2019-01-12T06:45:53.798Z,3.10
2019-01-12T06:48:20.319Z,4.60
2019-01-12T06:50:46.753Z,4.80
2019-01-12T06:53:13.366Z,3.37
2019-01-12T06:55:39.506Z,4.07
2019-01-12T06:58:05.577Z,3.80
2019-01-12T07:00:31.591Z,4.37
2019-01-12T07:02:58.837Z,3.93
2019-01-12T07:05:25.062Z,4.23
2019-01-12T07:07:51.651Z,4.23
2019-01-12T07:10:17.918Z,5.03
2019-01-12T07:12:44.390Z,4.73
2019-01-12T07:15:12.174Z,4.03
2019-01-12T07:17:38.336Z,3.80
2019-01-12T07:20:08.711Z,4.23
2019-01-12T07:22:34.771Z,4.17
2019-01-12T07:25:00.806Z,3.80
2019-01-12T07:27:27.733Z,4.50
2019-01-12T07:29:54.036Z,5.63
2019-01-12T07:32:20.192Z,4.83
2019-01-12T07:34:46.255Z,4.03
2019-01-12T07:37:12.271Z,4.60
2019-01-12T07:39:38.455Z,4.67
2019-01-12T07:42:04.608Z,4.53
2019-01-12T07:44:30.764Z,5.70
2019-01-12T07:46:56.788Z,4.63
2019-01-12T07:49:22.967Z,5.10
2019-01-12T07:51:49.021Z,4.73
2019-01-12T07:54:15.110Z,5.20
2019-01-12T07:56:41.131Z,4.53
2019-01-12T07:59:07.287Z,3.33
2019-01-12T08:01:33.282Z,3.60
2019-01-12T08:03:59.307Z,4.60
2019-01-12T08:06:25.514Z,4.33
2019-01-12T08:08:51.835Z,2.97
2019-01-12T08:11:18.150Z,4.80
2019-01-12T08:13:44.244Z,3.87
2019-01-12T08:16:10.370Z,5.77
2019-01-12T08:18:36.802Z,3.67
2019-01-12T08:21:03.043Z,3.50
2019-01-12T08:23:29.058Z,3.20
2019-01-12T08:25:55.095Z,2.70
2019-01-12T08:28:21.131Z,3.10
2019-01-12T08:30:47.383Z,3.40
2019-01-12T08:33:13.405Z,2.50
2019-01-12T08:35:39.454Z,3.23
2019-01-12T08:38:05.484Z,2.60
2019-01-12T08:40:31.536Z,2.37
2019-01-12T08:42:57.756Z,2.47
2019-01-12T08:45:23.909Z,2.40
2019-01-12T08:47:49.955Z,8.00
2019-01-12T08:50:16.419Z,2.90
2019-01-12T08:52:42.546Z,1.93
2019-01-12T08:55:09.493Z,2.07
2019-01-12T08:57:35.734Z,2.80
2019-01-12T09:00:05.563Z,2.93
2019-01-12T09:02:31.718Z,2.73
2019-01-12T09:04:57.755Z,2.50
2019-01-12T09:07:23.957Z,2.83
2019-01-12T09:09:50.171Z,2.17
2019-01-12T09:12:16.202Z,2.03
2019-01-12T09:14:42.243Z,2.53
2019-01-12T09:17:08.413Z,2.40
2019-01-12T09:19:34.673Z,3.00
2019-01-12T09:22:01.044Z,2.60
2019-01-12T09:24:27.103Z,1.87
2019-01-12T09:26:53.111Z,1.87
2019-01-12T09:29:19.246Z,1.87
2019-01-12T09:31:45.309Z,2.03
2019-01-12T09:34:11.480Z,1.90
2019-01-12T09:36:37.641Z,1.93
2019-01-12T09:39:05.700Z,1.40
2019-01-12T09:41:32.087Z,1.73
2019-01-12T09:43:58.125Z,1.57
2019-01-12T09:46:24.775Z,1.10
2019-01-12T09:48:50.932Z,1.47
2019-01-12T09:51:17.036Z,1.90
2019-01-12T09:53:43.135Z,1.57
2019-01-12T09:56:09.156Z,1.73
2019-01-12T09:58:35.174Z,1.20
2019-01-12T10:01:01.306Z,1.40
2019-01-12T10:03:27.447Z,1.50
2019-01-12T10:05:53.450Z,1.40
2019-01-12T10:08:19.562Z,1.80
2019-01-12T10:10:45.662Z,1.70
2019-01-12T10:13:11.693Z,1.87
2019-01-12T10:15:37.814Z,1.87
2019-01-12T10:18:03.924Z,2.20
2019-01-12T10:20:29.951Z,2.10
2019-01-12T10:22:56.144Z,1.87
2019-01-12T10:25:22.229Z,1.60
2019-01-12T10:27:48.326Z,2.03
2019-01-12T10:30:16.937Z,2.47
2019-01-12T10:32:43.083Z,2.50
2019-01-12T10:35:09.435Z,1.80
2019-01-12T10:37:35.630Z,1.57
2019-01-12T10:40:03.974Z,3.07
2019-01-12T10:42:30.121Z,2.83
2019-01-12T10:44:56.175Z,3.97
2019-01-12T10:47:22.216Z,5.70
2019-01-12T10:49:48.495Z,8.07
2019-01-12T10:52:14.543Z,6.90
2019-01-12T10:54:40.680Z,8.07
2019-01-12T10:57:06.839Z,3.97
2019-01-12T10:59:32.850Z,2.67
2019-01-12T11:01:58.978Z,2.93
2019-01-12T11:04:25.051Z,3.07
2019-01-12T11:06:51.426Z,2.10
2019-01-12T11:09:17.453Z,2.30
2019-01-12T11:11:43.736Z,2.67
2019-01-12T11:14:10.011Z,2.70
2019-01-12T11:16:36.237Z,2.10
2019-01-12T11:19:02.671Z,1.50
2019-01-12T11:21:28.684Z,1.30
2019-01-12T11:23:54.691Z,1.70
2019-01-12T11:26:20.703Z,1.60
2019-01-12T11:28:46.703Z,1.53
2019-01-12T11:31:19.610Z,2.20
2019-01-12T11:33:40.707Z,2.30
2019-01-12T11:36:07.184Z,1.00
2019-01-12T11:38:33.261Z,1.47
2019-01-12T11:40:59.407Z,2.17
2019-01-12T11:43:25.565Z,7.33
2019-01-12T11:45:51.843Z,1.93
2019-01-12T11:48:17.866Z,2.60
2019-01-12T11:50:44.044Z,2.20
2019-01-12T11:53:10.075Z,2.80
2019-01-12T11:55:36.165Z,3.47
2019-01-12T11:58:02.350Z,4.83
2019-01-12T12:00:28.398Z,3.03
2019-01-12T12:02:54.787Z,3.40
2019-01-12T12:05:20.890Z,2.80
2019-01-12T12:07:46.957Z,2.70
2019-01-12T12:10:14.922Z,3.13
2019-01-12T12:12:41.076Z,2.60
2019-01-12T12:15:10.174Z,3.30
2019-01-12T12:17:36.194Z,3.90
2019-01-12T12:20:06.043Z,3.70
2019-01-12T12:22:32.314Z,4.13
2019-01-12T12:24:58.393Z,3.30
2019-01-12T12:27:26.143Z,3.77
2019-01-12T12:29:59.333Z,3.37
2019-01-12T12:32:25.690Z,3.77
2019-01-12T12:34:51.714Z,3.27
2019-01-12T12:37:18.028Z,3.20
2019-01-12T12:39:44.274Z,3.50
2019-01-12T12:42:10.363Z,3.27
2019-01-12T12:44:36.421Z,3.37
2019-01-12T12:47:02.779Z,3.20
2019-01-12T12:49:28.946Z,3.60
2019-01-12T12:51:55.090Z,3.90
2019-01-12T12:54:21.116Z,3.87
2019-01-12T12:56:47.127Z,3.93
2019-01-12T12:59:13.159Z,3.80
2019-01-12T13:01:39.166Z,4.00
2019-01-12T13:04:05.208Z,4.60
2019-01-12T13:06:31.255Z,4.07
2019-01-12T13:08:57.568Z,4.73
2019-01-12T13:11:24.098Z,4.40
2019-01-12T13:13:50.196Z,4.13
2019-01-12T13:16:16.238Z,4.87
2019-01-12T13:18:42.265Z,5.37
2019-01-12T13:21:08.350Z,6.40
2019-01-12T13:23:34.450Z,6.83
2019-01-12T13:26:00.451Z,6.10
2019-01-12T13:28:26.462Z,8.23
2019-01-12T13:30:52.467Z,8.70
2019-01-12T13:33:18.510Z,7.40
2019-01-12T13:35:44.690Z,7.77
2019-01-12T13:38:10.727Z,7.80
2019-01-12T13:40:36.785Z,9.67
2019-01-12T13:43:02.911Z,6.20
2019-01-12T13:45:28.932Z,7.77
2019-01-12T13:47:55.120Z,6.87
2019-01-12T13:50:22.521Z,13.20
2019-01-12T13:52:48.677Z,6.30
2019-01-12T13:55:15.462Z,5.60
2019-01-12T13:57:47.305Z,6.37
2019-01-12T14:00:13.592Z,7.77
2019-01-12T14:02:39.978Z,6.23
2019-01-12T14:05:06.461Z,6.60
2019-01-12T14:07:32.558Z,7.23
2019-01-12T14:09:58.732Z,5.43
2019-01-12T14:12:24.900Z,5.77
2019-01-12T14:14:55.711Z,6.10
2019-01-12T14:17:24.089Z,6.03
2019-01-12T14:19:50.824Z,6.37
2019-01-12T14:22:21.705Z,5.53
2019-01-12T14:24:50.158Z,5.30
2019-01-12T14:27:16.652Z,5.17
2019-01-12T14:29:44.440Z,4.87
2019-01-12T14:32:10.669Z,5.53
2019-01-12T14:34:36.997Z,4.50
2019-01-12T14:37:03.539Z,5.17
2019-01-12T14:39:29.887Z,5.00
2019-01-12T14:41:56.881Z,4.73
2019-01-12T14:44:23.414Z,4.30
2019-01-12T14:46:49.830Z,3.83
2019-01-12T14:49:16.440Z,3.50
2019-01-12T14:51:43.265Z,3.67
2019-01-12T14:54:09.390Z,3.07
2019-01-12T14:56:35.689Z,2.80
2019-01-12T14:59:02.378Z,3.03
2019-01-12T15:01:28.997Z,2.30
2019-01-12T15:03:55.579Z,3.00
2019-01-12T15:06:21.963Z,2.50
2019-01-12T15:08:48.270Z,2.97
2019-01-12T15:11:14.645Z,3.33
2019-01-12T15:13:40.892Z,2.37
2019-01-12T15:16:07.893Z,2.57
2019-01-12T15:18:34.050Z,2.17
2019-01-12T15:21:00.439Z,2.50
2019-01-12T15:23:27.349Z,2.40
2019-01-12T15:25:53.583Z,2.10
2019-01-12T15:28:20.171Z,2.20
2019-01-12T15:30:46.492Z,2.17
2019-01-12T15:33:13.207Z,2.43
2019-01-12T15:35:39.956Z,2.60
2019-01-12T15:38:06.432Z,2.10
2019-01-12T15:40:32.698Z,1.90
2019-01-12T15:42:58.878Z,1.90
2019-01-12T15:45:25.641Z,2.10
2019-01-12T15:47:52.014Z,2.10
2019-01-12T15:50:21.792Z,2.47
2019-01-12T15:52:52.215Z,2.47
2019-01-12T15:55:19.042Z,2.73
2019-01-12T15:57:45.354Z,2.30
2019-01-12T16:00:19.448Z,2.10
2019-01-12T16:02:45.615Z,1.97
2019-01-12T16:05:12.288Z,2.23
2019-01-12T16:07:38.736Z,2.60
2019-01-12T16:10:08.206Z,2.60
2019-01-12T16:12:34.279Z,2.70
2019-01-12T16:15:00.443Z,2.90
2019-01-12T16:17:26.474Z,2.53
2019-01-12T16:19:52.551Z,2.80
2019-01-12T16:22:19.288Z,2.70
2019-01-12T16:24:45.664Z,2.50
2019-01-12T16:27:11.680Z,2.93
2019-01-12T16:29:37.774Z,3.40
2019-01-12T16:32:03.900Z,2.43
2019-01-12T16:34:30.062Z,2.33
2019-01-12T16:36:56.123Z,2.57
2019-01-12T16:39:22.144Z,2.87
2019-01-12T16:41:48.315Z,5.93
2019-01-12T16:44:14.431Z,8.97
2019-01-12T16:46:40.635Z,13.27
2019-01-12T16:49:06.707Z,4.20
2019-01-12T16:51:32.751Z,5.77
2019-01-12T16:53:58.845Z,2.63
2019-01-12T16:56:24.986Z,3.93
2019-01-12T16:58:50.997Z,2.80
2019-01-12T17:01:17.282Z,2.83
2019-01-12T17:03:43.318Z,2.10
2019-01-12T17:06:09.366Z,3.20
2019-01-12T17:08:35.572Z,1.83
2019-01-12T17:11:01.689Z,2.30
2019-01-12T17:13:27.843Z,2.03
2019-01-12T17:15:53.875Z,2.83
2019-01-12T17:18:20.026Z,3.20
2019-01-12T17:20:46.092Z,2.90
2019-01-12T17:23:12.128Z,2.87
2019-01-12T17:25:38.244Z,3.10
2019-01-12T17:28:04.318Z,3.10
2019-01-12T17:30:30.428Z,2.20
2019-01-12T17:32:56.623Z,2.60
2019-01-12T17:35:22.717Z,2.87
2019-01-12T17:37:49.029Z,3.00
2019-01-12T17:40:15.970Z,3.40
2019-01-12T17:42:43.231Z,2.30
2019-01-12T17:45:14.886Z,3.10
2019-01-12T17:47:41.153Z,2.87
2019-01-12T17:50:11.232Z,3.73
2019-01-12T17:52:37.770Z,4.63
2019-01-12T17:55:07.865Z,5.47
2019-01-12T17:57:33.978Z,4.50
2019-01-12T18:00:00.970Z,4.00
2019-01-12T18:02:27.298Z,3.20
2019-01-12T18:04:53.355Z,3.90
2019-01-12T18:07:19.704Z,2.63
2019-01-12T18:09:53.659Z,4.03
2019-01-12T18:12:19.672Z,3.27
2019-01-12T18:14:45.745Z,3.03
2019-01-12T18:17:12.094Z,2.87
2019-01-12T18:19:38.157Z,2.80
2019-01-12T18:22:04.367Z,3.47
2019-01-12T18:24:30.501Z,3.37
2019-01-12T18:26:56.621Z,3.97
2019-01-12T18:29:23.014Z,2.73
2019-01-12T18:31:49.286Z,3.80
2019-01-12T18:34:15.722Z,2.90
2019-01-12T18:36:41.905Z,3.80
2019-01-12T18:39:08.142Z,3.07
2019-01-12T18:41:34.409Z,3.50
2019-01-12T18:44:01.075Z,3.70
2019-01-12T18:46:27.236Z,2.63
2019-01-12T18:48:53.479Z,3.40
2019-01-12T18:51:19.575Z,4.30
2019-01-12T18:53:45.715Z,5.00
2019-01-12T18:56:11.815Z,7.00
2019-01-12T18:58:37.902Z,4.10
2019-01-12T19:01:04.358Z,5.33
2019-01-12T19:03:30.711Z,22.50
2019-01-12T19:05:56.869Z,17.07
2019-01-12T19:08:22.931Z,12.70
2019-01-12T19:10:49.284Z,8.03
2019-01-12T19:13:15.464Z,2.40
2019-01-12T19:15:44.506Z,2.33
2019-01-12T19:18:14.267Z,3.30
2019-01-12T19:20:40.835Z,2.57
2019-01-12T19:23:12.392Z,2.30
2019-01-12T19:25:38.919Z,2.90
2019-01-12T19:28:05.361Z,2.60
2019-01-12T19:30:49.566Z,2.43
2019-01-12T19:33:15.484Z,2.03
2019-01-12T19:35:48.141Z,2.37
2019-01-12T19:38:14.699Z,2.50
2019-01-12T19:40:41.129Z,3.40
2019-01-12T19:43:07.508Z,2.73
2019-01-12T19:45:33.626Z,4.03
2019-01-12T19:47:59.845Z,2.93
2019-01-12T19:50:25.989Z,2.70
2019-01-12T19:52:52.266Z,3.07
2019-01-12T19:55:18.415Z,2.10
2019-01-12T19:57:44.550Z,2.17
2019-01-12T20:00:13.417Z,2.17
2019-01-12T20:02:39.627Z,2.07
2019-01-12T20:05:06.193Z,1.40
2019-01-12T20:07:32.261Z,1.70
2019-01-12T20:09:58.322Z,1.80
2019-01-12T20:12:24.535Z,1.80
2019-01-12T20:14:50.675Z,1.93
2019-01-12T20:17:16.886Z,1.73
2019-01-12T20:19:42.944Z,2.13
2019-01-12T20:22:10.135Z,1.73
2019-01-12T20:24:36.443Z,2.70
2019-01-12T20:27:03.030Z,2.00
2019-01-12T20:29:29.066Z,2.07
2019-01-12T20:32:07.790Z,2.03
2019-01-12T20:34:36.437Z,1.87
2019-01-12T20:37:24.418Z,2.73
2019-01-12T20:40:23.928Z,1.97
2019-01-12T20:42:56.520Z,2.27
2019-01-12T20:45:41.770Z,2.90
2019-01-12T20:48:11.787Z,2.00
2019-01-12T20:50:47.225Z,2.80
2019-01-12T20:53:19.901Z,3.77
2019-01-12T20:56:04.704Z,2.90
2019-01-12T20:58:43.542Z,3.43
2019-01-12T21:01:30.055Z,2.93
2019-01-12T21:04:16.398Z,2.10
2019-01-12T21:06:53.574Z,3.67
2019-01-12T21:09:32.402Z,2.80
2019-01-12T21:12:33.795Z,2.97
2019-01-12T21:15:01.902Z,3.60
2019-01-12T21:17:29.447Z,1.93
2019-01-12T21:19:56.295Z,2.60
2019-01-12T21:22:22.611Z,2.60
2019-01-12T21:24:50.309Z,2.00
2019-01-12T21:27:16.367Z,2.57
2019-01-12T21:29:42.562Z,2.47
2019-01-12T21:32:09.158Z,3.43
2019-01-12T21:34:43.495Z,2.40
2019-01-12T21:37:09.594Z,2.37
2019-01-12T21:39:35.632Z,3.63
2019-01-12T21:42:03.377Z,2.23
2019-01-12T21:44:29.404Z,2.07
2019-01-12T21:46:55.536Z,1.83
2019-01-12T21:49:21.555Z,2.20
2019-01-12T21:51:47.573Z,2.30
2019-01-12T21:54:14.406Z,2.63
2019-01-12T21:56:40.433Z,2.50
2019-01-12T21:59:06.560Z,4.33
2019-01-12T22:01:36.372Z,1.63
2019-01-12T22:04:00.722Z,1.50
2019-01-12T22:06:27.005Z,2.20
2019-01-12T22:08:53.115Z,1.67
2019-01-12T22:11:19.214Z,2.27
2019-01-12T22:13:45.526Z,2.13
2019-01-12T22:16:11.564Z,1.57
2019-01-12T22:18:39.805Z,3.33
2019-01-12T22:21:06.033Z,1.80
2019-01-12T22:23:32.065Z,1.63
2019-01-12T22:25:58.263Z,1.67
2019-01-12T22:28:24.287Z,1.63
2019-01-12T22:30:50.611Z,2.97
2019-01-12T22:33:16.729Z,2.00
2019-01-12T22:35:42.818Z,2.73
2019-01-12T22:38:08.837Z,2.30
2019-01-12T22:40:35.182Z,2.80
2019-01-12T22:43:01.610Z,1.80
2019-01-12T22:45:27.752Z,1.93
2019-01-12T22:47:53.936Z,1.90
2019-01-12T22:50:19.954Z,1.60
2019-01-12T22:52:46.293Z,2.73
2019-01-12T22:55:13.792Z,2.37
2019-01-12T22:57:40.291Z,2.20
2019-01-12T23:00:29.724Z,2.13
2019-01-12T23:02:56.026Z,2.90
2019-01-12T23:05:22.403Z,2.53
2019-01-12T23:07:48.569Z,2.70
2019-01-12T23:10:14.697Z,2.60
2019-01-12T23:12:45.894Z,2.90
2019-01-12T23:15:12.296Z,2.40
2019-01-12T23:17:38.358Z,3.30
2019-01-12T23:20:06.146Z,3.23
2019-01-12T23:22:32.270Z,3.23
2019-01-12T23:24:58.418Z,4.20
2019-01-12T23:27:24.541Z,3.27
2019-01-12T23:29:50.874Z,3.63
2019-01-12T23:32:17.229Z,3.57
2019-01-12T23:34:43.435Z,2.73
2019-01-12T23:37:09.654Z,3.07
2019-01-12T23:39:35.659Z,4.00
2019-01-12T23:42:01.679Z,1.90
2019-01-12T23:44:27.749Z,3.17
2019-01-12T23:46:53.886Z,3.90
2019-01-12T23:49:19.910Z,2.87
2019-01-12T23:51:46.113Z,3.13
2019-01-12T23:54:12.146Z,3.27
2019-01-12T23:56:38.185Z,2.83
2019-01-12T23:59:04.215Z,2.70
